地図

経路データ

SID SEASON NUMBER BASIN SUBBASIN NAME ISO_TIME NATURE LAT LON WMO_WIND WMO_PRES WMO_AGENCY TRACK_TYPE DIST2LAND LANDFALL IFLAG USA_AGENCY USA_ATCF_ID USA_LAT USA_LON USA_RECORD USA_STATUS USA_WIND USA_PRES USA_SSHS USA_R34_NE USA_R34_SE USA_R34_SW USA_R34_NW USA_R50_NE USA_R50_SE USA_R50_SW USA_R50_NW USA_R64_NE USA_R64_SE USA_R64_SW USA_R64_NW USA_POCI USA_ROCI USA_RMW USA_EYE TOKYO_LAT TOKYO_LON TOKYO_GRADE TOKYO_WIND TOKYO_PRES TOKYO_R50_DIR TOKYO_R50_LONG TOKYO_R50_SHORT TOKYO_R30_DIR TOKYO_R30_LONG TOKYO_R30_SHORT TOKYO_LAND CMA_LAT CMA_LON CMA_CAT CMA_WIND CMA_PRES HKO_LAT HKO_LON HKO_CAT HKO_WIND HKO_PRES NEWDELHI_LAT NEWDELHI_LON NEWDELHI_GRADE NEWDELHI_WIND NEWDELHI_PRES NEWDELHI_CI NEWDELHI_DP NEWDELHI_POCI REUNION_LAT REUNION_LON REUNION_TYPE REUNION_WIND REUNION_PRES REUNION_TNUM REUNION_CI REUNION_RMW REUNION_R34_NE REUNION_R34_SE REUNION_R34_SW REUNION_R34_NW REUNION_R50_NE REUNION_R50_SE REUNION_R50_SW REUNION_R50_NW REUNION_R64_NE REUNION_R64_SE REUNION_R64_SW REUNION_R64_NW BOM_LAT BOM_LON BOM_TYPE BOM_WIND BOM_PRES BOM_TNUM BOM_CI BOM_RMW BOM_R34_NE BOM_R34_SE BOM_R34_SW BOM_R34_NW BOM_R50_NE BOM_R50_SE BOM_R50_SW BOM_R50_NW BOM_R64_NE BOM_R64_SE BOM_R64_SW BOM_R64_NW BOM_ROCI BOM_POCI BOM_EYE BOM_POS_METHOD BOM_PRES_METHOD NADI_LAT NADI_LON NADI_CAT NADI_WIND NADI_PRES WELLINGTON_LAT WELLINGTON_LON WELLINGTON_WIND WELLINGTON_PRES DS824_LAT DS824_LON DS824_STAGE DS824_WIND DS824_PRES TD9636_LAT TD9636_LON TD9636_STAGE TD9636_WIND TD9636_PRES TD9635_LAT TD9635_LON TD9635_WIND TD9635_PRES TD9635_ROCI NEUMANN_LAT NEUMANN_LON NEUMANN_CLASS NEUMANN_WIND NEUMANN_PRES MLC_LAT MLC_LON MLC_CLASS MLC_WIND MLC_PRES USA_GUST BOM_GUST BOM_GUST_PER REUNION_GUST REUNION_GUST_PER USA_SEAHGT USA_SEARAD_NE USA_SEARAD_SE USA_SEARAD_SW USA_SEARAD_NW STORM_SPEED STORM_DIR
1935042S13057 1935 6 SI MM NOT_NAMED 1935-02-11 06:00:00 NR -12.5000 56.9000 reunion main 750 729 _____O________ -1 -12.5000 56.9000 99 9.90000 3 266
1935042S13057 1935 6 SI MM NOT_NAMED 1935-02-11 09:00:00 NR -12.5131 56.7262 main 729 719 _____P________ -1 -12.5131 56.7262 99 3 266
1935042S13057 1935 6 SI MM NOT_NAMED 1935-02-11 12:00:00 NR -12.5261 56.5476 main 708 697 _____P________ -1 -12.5261 56.5476 99 4 266
1935042S13057 1935 6 SI MM NOT_NAMED 1935-02-11 15:00:00 NR -12.5389 56.3592 main 697 674 _____P________ -1 -12.5389 56.3592 99 4 266
1935042S13057 1935 6 SI MM NOT_NAMED 1935-02-11 18:00:00 NR -12.5516 56.1562 main 674 642 _____P________ -1 -12.5516 56.1562 99 4 267
1935042S13057 1935 6 SI MM NOT_NAMED 1935-02-11 21:00:00 NR -12.5642 55.9336 main 642 621 _____P________ -1 -12.5642 55.9336 99 5 267
1935042S13057 1935 6 SI MM NOT_NAMED 1935-02-12 00:00:00 NR -12.5765 55.6867 main 621 589 _____P________ -1 -12.5765 55.6867 99 5 267
1935042S13057 1935 6 SI MM NOT_NAMED 1935-02-12 03:00:00 NR -12.5885 55.4104 main 589 558 _____P________ -1 -12.5885 55.4104 99 6 268
1935042S13057 1935 6 SI MM NOT_NAMED 1935-02-12 06:00:00 NR -12.6000 55.1000 reunion main 558 526 _____O________ -1 -12.6000 55.1000 99 9.90000 6 268
1935042S13057 1935 6 SI MM NOT_NAMED 1935-02-12 09:00:00 NR -12.6120 54.7525 main 526 484 _____P________ -1 -12.6120 54.7525 99 7 268
1935042S13057 1935 6 SI MM NOT_NAMED 1935-02-12 12:00:00 NR -12.6296 54.3728 main 484 439 _____P________ -1 -12.6296 54.3728 99 8 266
1935042S13057 1935 6 SI MM NOT_NAMED 1935-02-12 15:00:00 NR -12.6589 53.9678 main 439 397 _____P________ -1 -12.6589 53.9678 99 8 265
1935042S13057 1935 6 SI MM NOT_NAMED 1935-02-12 18:00:00 NR -12.7061 53.5443 main 387 342 _____P________ -1 -12.7061 53.5443 99 8 262
1935042S13057 1935 6 SI MM NOT_NAMED 1935-02-12 21:00:00 NR -12.7776 53.1091 main 342 297 _____P________ -1 -12.7776 53.1091 99 9 259
1935042S13057 1935 6 SI MM NOT_NAMED 1935-02-13 00:00:00 NR -12.8795 52.6689 main 297 253 _____P________ -1 -12.8795 52.6689 99 9 254
1935042S13057 1935 6 SI MM NOT_NAMED 1935-02-13 03:00:00 NR -13.0181 52.2303 main 242 195 _____P________ -1 -13.0181 52.2303 99 9 249
1935042S13057 1935 6 SI MM NOT_NAMED 1935-02-13 06:00:00 NR -13.2000 51.8000 reunion main 195 157 _____O________ -1 -13.2000 51.8000 99 9.90000 9 243
1935042S13057 1935 6 SI MM NOT_NAMED 1935-02-13 09:00:00 NR -13.4137 51.4396 main 147 108 _____P________ -1 -13.4137 51.4396 99 8 236
1935042S13057 1935 6 SI MM NOT_NAMED 1935-02-13 12:00:00 NR -13.6687 51.0879 main 108 75 _____P________ -1 -13.6687 51.0879 99 9 231
1935042S13057 1935 6 SI MM NOT_NAMED 1935-02-13 15:00:00 NR -13.9620 50.7367 main 64 32 _____P________ -1 -13.9620 50.7367 99 9 228
1935042S13057 1935 6 SI MM NOT_NAMED 1935-02-13 18:00:00 NR -14.2909 50.3778 main 32 0 _____P________ -1 -14.2909 50.3778 99 10 226
1935042S13057 1935 6 SI MM NOT_NAMED 1935-02-13 21:00:00 NR -14.6521 50.0031 main 0 0 _____P________ -1 -14.6521 50.0031 99 11 225
1935042S13057 1935 6 SI MM NOT_NAMED 1935-02-14 00:00:00 NR -15.0427 49.6042 main 0 0 _____P________ -1 -15.0427 49.6042 99 11 225
1935042S13057 1935 6 SI MM NOT_NAMED 1935-02-14 03:00:00 NR -15.4597 49.1727 main 0 0 _____P________ -1 -15.4597 49.1727 99 12 225
1935042S13057 1935 6 SI MM NOT_NAMED 1935-02-14 06:00:00 NR -15.9000 48.7000 reunion main 0 0 _____O________ -1 -15.9000 48.7000 99 9.90000 14 230
1935042S13057 1935 6 SI MM NOT_NAMED 1935-02-14 09:00:00 NR -16.3506 48.0876 main 0 0 _____P________ -1 -16.3506 48.0876 99 15 233
1935042S13057 1935 6 SI MM NOT_NAMED 1935-02-14 12:00:00 NR -16.8294 47.4236 main 0 0 _____P________ -1 -16.8294 47.4236 99 16 233
1935042S13057 1935 6 SI MM NOT_NAMED 1935-02-14 15:00:00 NR -17.3293 46.7297 main 0 0 _____P________ -1 -17.3293 46.7297 99 17 233
1935042S13057 1935 6 SI MM NOT_NAMED 1935-02-14 18:00:00 NR -17.8428 46.0282 main 0 0 _____P________ -1 -17.8428 46.0282 99 17 232
1935042S13057 1935 6 SI MM NOT_NAMED 1935-02-14 21:00:00 NR -18.3631 45.3414 main 0 0 _____P________ -1 -18.3631 45.3414 99 16 231
1935042S13057 1935 6 SI MM NOT_NAMED 1935-02-15 00:00:00 NR -18.8835 44.6922 main 0 0 _____P________ -1 -18.8835 44.6922 99 16 229
1935042S13057 1935 6 SI MM NOT_NAMED 1935-02-15 03:00:00 NR -19.3978 44.1039 main 30 30 _____P________ -1 -19.3978 44.1039 99 15 225
1935042S13057 1935 6 SI MM NOT_NAMED 1935-02-15 06:00:00 NR -19.9000 43.6000 reunion main 84 83 _____O________ -1 -19.9000 43.6000 99 9.90000 13 224
1935042S13057 1935 6 SI MM NOT_NAMED 1935-02-15 09:00:00 NR -20.3150 43.1469 main 100 94 _____P________ -1 -20.3150 43.1469 99 11 224
1935042S13057 1935 6 SI MM NOT_NAMED 1935-02-15 12:00:00 NR -20.7162 42.7616 main 106 103 _____P________ -1 -20.7162 42.7616 99 10 219
1935042S13057 1935 6 SI MM NOT_NAMED 1935-02-15 15:00:00 NR -21.1155 42.4516 main 108 108 _____P________ -1 -21.1155 42.4516 99 10 212
1935042S13057 1935 6 SI MM NOT_NAMED 1935-02-15 18:00:00 NR -21.5248 42.2245 main 126 117 _____P________ -1 -21.5248 42.2245 99 9 202
1935042S13057 1935 6 SI MM NOT_NAMED 1935-02-15 21:00:00 NR -21.9561 42.0878 main 115 113 _____P________ -1 -21.9561 42.0878 99 9 190
1935042S13057 1935 6 SI MM NOT_NAMED 1935-02-16 00:00:00 NR -22.4213 42.0493 main 123 115 _____P________ -1 -22.4213 42.0493 99 10 0
1935042S13057 1935 6 SI MM NOT_NAMED 1935-02-16 03:00:00 NR -22.9321 42.1172 main 130 127 _____P________ -1 -22.9321 42.1172 99 11 168
1935042S13057 1935 6 SI MM NOT_NAMED 1935-02-16 06:00:00 NR -23.5000 42.3000 reunion main 134 111 _____O________ -1 -23.5000 42.3000 99 9.90000 14 159
1935042S13057 1935 6 SI MM NOT_NAMED 1935-02-16 09:00:00 NR -24.2585 42.6634 main 103 78 _____P________ -1 -24.2585 42.6634 99 18 154
1935042S13057 1935 6 SI MM NOT_NAMED 1935-02-16 12:00:00 NR -25.0849 43.1659 main 81 73 _____P________ -1 -25.0849 43.1659 99 20 149
1935042S13057 1935 6 SI MM NOT_NAMED 1935-02-16 15:00:00 NR -25.9475 43.7738 main 90 90 _____P________ -1 -25.9475 43.7738 99 21 146
1935042S13057 1935 6 SI MM NOT_NAMED 1935-02-16 18:00:00 NR -26.8141 44.4520 main 151 151 _____P________ -1 -26.8141 44.4520 99 21 144
1935042S13057 1935 6 SI MM NOT_NAMED 1935-02-16 21:00:00 NR -27.6531 45.1636 main 234 234 _____P________ -1 -27.6531 45.1636 99 21 142
1935042S13057 1935 6 SI MM NOT_NAMED 1935-02-17 00:00:00 NR -28.4335 45.8695 main 315 315 _____P________ -1 -28.4335 45.8695 99 19 141
1935042S13057 1935 6 SI MM NOT_NAMED 1935-02-17 03:00:00 NR -29.1254 46.5291 main 403 403 _____P________ -1 -29.1254 46.5291 99 17 140
1935042S13057 1935 6 SI MM NOT_NAMED 1935-02-17 06:00:00 NR -29.7000 47.1000 reunion main 484 484 _____O________ -1 -29.7000 47.1000 99 9.90000 13 139
1935042S13057 1935 6 SI MM NOT_NAMED 1935-02-17 09:00:00 NR -30.1371 47.5486 main 539 539 _____P________ -1 -30.1371 47.5486 99 10 138
1935042S13057 1935 6 SI MM NOT_NAMED 1935-02-17 12:00:00 NR -30.4482 47.8796 main 585 585 _____P________ -1 -30.4482 47.8796 99 7 137
1935042S13057 1935 6 SI MM NOT_NAMED 1935-02-17 15:00:00 NR -30.6524 48.1082 main 623 623 _____P________ -1 -30.6524 48.1082 99 5 135
1935042S13057 1935 6 SI MM NOT_NAMED 1935-02-17 18:00:00 NR -30.7678 48.2508 main 641 641 _____P________ -1 -30.7678 48.2508 99 2 131
1935042S13057 1935 6 SI MM NOT_NAMED 1935-02-17 21:00:00 NR -30.8126 48.3240 main 641 641 _____P________ -1 -30.8126 48.3240 99 1 114
1935042S13057 1935 6 SI MM NOT_NAMED 1935-02-18 00:00:00 NR -30.8045 48.3450 main 641 641 _____P________ -1 -30.8045 48.3450 99 1 23
1935042S13057 1935 6 SI MM NOT_NAMED 1935-02-18 03:00:00 NR -30.7611 48.3312 main 641 631 _____P________ -1 -30.7611 48.3312 99 1 339
1935042S13057 1935 6 SI MM NOT_NAMED 1935-02-18 06:00:00 NR -30.7000 48.3000 reunion main 631 _____O________ -1 -30.7000 48.3000 99 9.90000 1 0

IBTrACS Databaseについて

本データベースは、米国NOAAが公開する1842年以降の世界の熱帯低気圧のベストトラックデータアーカイブInternational Best Track Archive for Climate Stewardship (IBTrACS)を、ウェブで閲覧しやすい形式に変換したものです。

最終更新日:2021-12-06